Time;durP1;ratioP1;P1;durP2;ratioP2;P2;SDS_P1;SDS_P2;PMS_P1;PMS_P2;Temp;Humidity;BMP_temperature;BMP_pressure;BME280_temperature;BME280_humidity;BME280_pressure;Samples;Min_cycle;Max_cycle;Signal;HPM_P1;HPM_P2
2021/08/05 00:01:37;;;;;;;;;;;26.20;95.60;;;;;;5124897;28;19979;-44
2021/08/05 00:04:04;;;;;;;;;;;26.10;95.60;;;;;;5125012;28;20160;-44
2021/08/05 00:06:30;;;;;;;;;;;26.10;95.60;;;;;;5124872;28;19900;-52
2021/08/05 00:08:57;;;;;;;;;;;26.10;95.60;;;;;;5124781;28;20099;-43
2021/08/05 00:11:23;;;;;;;;;;;26.10;95.50;;;;;;5124778;28;19900;-49
2021/08/05 00:13:49;;;;;;;;;;;26.10;95.40;;;;;;5124964;28;19929;-45
2021/08/05 00:16:15;;;;;;;;;;;26.20;95.40;;;;;;5124498;28;19915;-52
2021/08/05 00:18:42;;;;;;;;;;;26.10;95.30;;;;;;5125191;28;19975;-54
2021/08/05 00:21:08;;;;;;;;;;;26.20;95.50;;;;;;5124625;28;19940;-51
2021/08/05 00:23:34;;;;;;;;;;;26.20;95.40;;;;;;5124434;28;19965;-46
2021/08/05 00:26:00;;;;;;;;;;;26.10;95.40;;;;;;5120303;28;19910;-43
2021/08/05 00:28:27;;;;;;;;;;;26.00;95.20;;;;;;5123054;28;19903;-45
2021/08/05 00:30:53;;;;;;;;;;;26.00;95.50;;;;;;5124599;28;19939;-43
2021/08/05 00:33:19;;;;;;;;;;;25.90;95.90;;;;;;5124944;28;19916;-40
2021/08/05 00:35:45;;;;;;;;;;;25.80;96.20;;;;;;5124025;28;19911;-40
2021/08/05 00:38:11;;;;;;;;;;;25.70;96.30;;;;;;5127281;28;19904;-48
2021/08/05 00:40:38;;;;;;;;;;;25.70;96.30;;;;;;5126787;28;19915;-44
2021/08/05 00:43:04;;;;;;;;;;;25.70;96.40;;;;;;5128472;28;19904;-39
2021/08/05 00:45:30;;;;;;;;;;;25.70;96.50;;;;;;5128126;28;19904;-40
2021/08/05 00:47:56;;;;;;;;;;;25.70;96.60;;;;;;5128490;28;19911;-41
2021/08/05 00:50:22;;;;;;;;;;;25.60;96.20;;;;;;5128102;28;19945;-41
2021/08/05 00:52:49;;;;;;;;;;;25.70;96.40;;;;;;5128321;28;19970;-45
2021/08/05 00:55:15;;;;;;;;;;;25.70;96.50;;;;;;5126641;28;20262;-41
2021/08/05 01:09:17;;;;;;;;;;;25.70;96.20;;;;;;5061529;28;19953;-41
2021/08/05 01:11:50;;;;;;;;;;;25.90;95.70;;;;;;5055930;28;20143;-45
2021/08/05 01:14:18;;;;;;;;;;;25.80;95.80;;;;;;5061349;28;19905;-40
2021/08/05 01:16:46;;;;;;;;;;;25.70;95.80;;;;;;5061358;28;20192;-40
2021/08/05 01:19:22;;;;;;;;;;;25.70;96.00;;;;;;5061158;28;19912;-41
2021/08/05 01:22:07;;;;;;;;;;;25.60;96.00;;;;;;5061300;28;19963;-41
2021/08/05 01:24:35;;;;;;;;;;;25.50;96.10;;;;;;5061010;28;19905;-42
2021/08/05 01:27:02;;;;;;;;;;;25.40;96.10;;;;;;5061272;28;19913;-40
2021/08/05 01:29:32;;;;;;;;;;;25.50;96.20;;;;;;5060987;28;19909;-42
2021/08/05 01:31:58;;;;;;;;;;;25.50;96.40;;;;;;5061009;28;19920;-39
2021/08/05 01:34:25;;;;;;;;;;;25.50;96.40;;;;;;5059892;28;19944;-41
2021/08/05 01:36:52;;;;;;;;;;;25.60;96.30;;;;;;5060737;28;19916;-41
2021/08/05 01:39:19;;;;;;;;;;;25.50;96.30;;;;;;5059672;28;19905;-48
2021/08/05 01:41:46;;;;;;;;;;;25.50;96.30;;;;;;5060895;28;19920;-41
2021/08/05 01:44:13;;;;;;;;;;;25.60;96.20;;;;;;5060773;28;19909;-55
2021/08/05 01:46:39;;;;;;;;;;;25.60;96.20;;;;;;5059542;28;20219;-42
2021/08/05 01:49:06;;;;;;;;;;;25.60;96.10;;;;;;5060607;28;19912;-41
2021/08/05 01:51:33;;;;;;;;;;;25.60;96.30;;;;;;5060714;28;20003;-40
2021/08/05 01:54:00;;;;;;;;;;;25.60;96.40;;;;;;5060504;28;19909;-50
2021/08/05 01:56:27;;;;;;;;;;;25.50;96.50;;;;;;5060774;28;19924;-40
2021/08/05 01:58:57;;;;;;;;;;;25.60;96.50;;;;;;5060416;28;20104;-42
2021/08/05 02:01:24;;;;;;;;;;;25.50;96.60;;;;;;5060508;28;19935;-44
2021/08/05 02:03:53;;;;;;;;;;;25.60;96.40;;;;;;5060445;28;19972;-40
2021/08/05 02:06:19;;;;;;;;;;;25.50;96.30;;;;;;5059291;28;19913;-47
2021/08/05 02:08:49;;;;;;;;;;;25.50;96.40;;;;;;5070068;28;19916;-42
2021/08/05 02:11:15;;;;;;;;;;;25.60;96.50;;;;;;5067073;28;19919;-40
2021/08/05 02:13:42;;;;;;;;;;;25.60;96.50;;;;;;5065464;28;19905;-48
2021/08/05 02:16:12;;;;;;;;;;;25.60;96.40;;;;;;5065488;28;19944;-45
2021/08/05 02:18:43;;;;;;;;;;;25.60;96.30;;;;;;5066345;28;19951;-51
2021/08/05 02:21:10;;;;;;;;;;;25.70;96.20;;;;;;5067242;28;19913;-41
2021/08/05 02:23:36;;;;;;;;;;;25.70;96.20;;;;;;5066601;28;19912;-44
2021/08/05 02:26:02;;;;;;;;;;;25.70;96.30;;;;;;5067470;28;19990;-41
2021/08/05 02:28:29;;;;;;;;;;;25.70;96.30;;;;;;5066085;28;19912;-39
2021/08/05 02:30:56;;;;;;;;;;;25.60;96.20;;;;;;5065538;28;19979;-41
2021/08/05 02:33:23;;;;;;;;;;;25.50;96.30;;;;;;5066742;28;19912;-45
2021/08/05 02:35:50;;;;;;;;;;;25.50;96.40;;;;;;5066313;28;19905;-48
2021/08/05 02:38:19;;;;;;;;;;;25.60;96.40;;;;;;5066771;28;19927;-40
2021/08/05 02:40:47;;;;;;;;;;;25.70;96.40;;;;;;5066415;28;19905;-41
2021/08/05 02:43:14;;;;;;;;;;;25.70;96.30;;;;;;5066671;28;19912;-42
2021/08/05 02:45:41;;;;;;;;;;;25.70;96.30;;;;;;5066285;28;19939;-46
2021/08/05 02:48:08;;;;;;;;;;;25.70;96.30;;;;;;5065293;28;19911;-45
2021/08/05 02:50:35;;;;;;;;;;;25.70;96.20;;;;;;5066204;28;19971;-45
2021/08/05 02:53:02;;;;;;;;;;;25.70;96.20;;;;;;5066394;28;19912;-43
2021/08/05 02:55:29;;;;;;;;;;;25.80;96.20;;;;;;5066427;28;20103;-49
2021/08/05 02:57:56;;;;;;;;;;;25.80;96.20;;;;;;5065146;28;19917;-42
2021/08/05 03:00:22;;;;;;;;;;;25.80;96.30;;;;;;5066301;28;19904;-42
2021/08/05 03:02:49;;;;;;;;;;;25.80;96.30;;;;;;5066140;28;19935;-45
2021/08/05 03:05:16;;;;;;;;;;;25.80;96.50;;;;;;5065015;28;20100;-43
2021/08/05 03:07:42;;;;;;;;;;;25.80;96.20;;;;;;5065778;28;19921;-45
2021/08/05 03:10:13;;;;;;;;;;;25.80;96.20;;;;;;5065039;28;19912;-44
2021/08/05 03:12:40;;;;;;;;;;;25.80;96.10;;;;;;5066509;28;19913;-41
2021/08/05 03:15:06;;;;;;;;;;;25.80;96.10;;;;;;5065993;28;19905;-42
2021/08/05 03:17:33;;;;;;;;;;;25.80;96.10;;;;;;5066254;28;19954;-41
2021/08/05 03:19:59;;;;;;;;;;;25.80;96.00;;;;;;5065116;28;20131;-42
2021/08/05 03:22:25;;;;;;;;;;;25.80;96.00;;;;;;5065283;28;19971;-43
2021/08/05 03:24:51;;;;;;;;;;;25.80;96.00;;;;;;5065725;28;19905;-46
2021/08/05 03:27:17;;;;;;;;;;;25.80;96.00;;;;;;5065964;28;19913;-46
2021/08/05 03:29:44;;;;;;;;;;;25.80;95.90;;;;;;5065536;28;19912;-40
2021/08/05 03:32:10;;;;;;;;;;;25.80;95.90;;;;;;5066142;28;19913;-40
2021/08/05 03:34:36;;;;;;;;;;;25.80;95.90;;;;;;5065779;28;19940;-48
2021/08/05 03:37:02;;;;;;;;;;;25.70;95.90;;;;;;5065067;28;19917;-41
2021/08/05 03:39:28;;;;;;;;;;;25.70;95.90;;;;;;5065413;28;19905;-45
2021/08/05 03:41:54;;;;;;;;;;;25.70;95.80;;;;;;5065744;28;20035;-41
2021/08/05 03:44:21;;;;;;;;;;;25.70;95.80;;;;;;5065217;28;20151;-41
2021/08/05 03:46:47;;;;;;;;;;;25.70;95.70;;;;;;5065933;28;19913;-40
2021/08/05 03:49:13;;;;;;;;;;;25.70;95.70;;;;;;5065155;28;19912;-46
2021/08/05 03:51:39;;;;;;;;;;;25.80;95.60;;;;;;5065009;28;19936;-40
2021/08/05 03:54:06;;;;;;;;;;;25.70;95.60;;;;;;5065286;28;20128;-42
2021/08/05 03:56:34;;;;;;;;;;;25.70;95.50;;;;;;5065163;28;19959;-41
2021/08/05 03:59:01;;;;;;;;;;;25.70;95.50;;;;;;5065017;28;19917;-41
2021/08/05 04:01:27;;;;;;;;;;;25.70;95.50;;;;;;5065340;28;19919;-43
2021/08/05 04:03:53;;;;;;;;;;;25.70;95.60;;;;;;5064987;28;19905;-41
2021/08/05 04:06:19;;;;;;;;;;;25.70;95.60;;;;;;5064498;28;19913;-43
2021/08/05 04:08:46;;;;;;;;;;;25.70;95.50;;;;;;5064512;28;19917;-42
2021/08/05 04:11:12;;;;;;;;;;;25.70;95.50;;;;;;5064853;28;19920;-46
2021/08/05 04:13:38;;;;;;;;;;;25.70;95.50;;;;;;5064761;28;19959;-47
2021/08/05 04:16:04;;;;;;;;;;;25.70;95.40;;;;;;5064726;28;19917;-41
2021/08/05 04:18:30;;;;;;;;;;;25.70;95.40;;;;;;5064684;28;20074;-42
2021/08/05 04:20:59;;;;;;;;;;;25.70;95.40;;;;;;5064408;28;20070;-42
2021/08/05 04:23:26;;;;;;;;;;;25.70;95.30;;;;;;5063263;28;20212;-41
2021/08/05 04:25:52;;;;;;;;;;;25.70;95.30;;;;;;5064670;28;19905;-49
2021/08/05 04:28:23;;;;;;;;;;;25.70;95.30;;;;;;5064507;28;20136;-41
2021/08/05 04:30:50;;;;;;;;;;;25.70;95.30;;;;;;5062977;28;20097;-45
2021/08/05 04:33:16;;;;;;;;;;;25.70;95.30;;;;;;5064760;28;19911;-48
2021/08/05 04:35:43;;;;;;;;;;;25.70;95.30;;;;;;5064009;28;19905;-42
2021/08/05 04:38:10;;;;;;;;;;;25.70;95.30;;;;;;5064560;28;19971;-41
2021/08/05 04:40:36;;;;;;;;;;;25.70;95.40;;;;;;5064359;28;19982;-41
2021/08/05 04:43:03;;;;;;;;;;;25.70;95.40;;;;;;5064356;28;19947;-41
2021/08/05 04:45:29;;;;;;;;;;;25.70;95.40;;;;;;5064265;28;19904;-44
2021/08/05 04:48:02;;;;;;;;;;;25.70;95.40;;;;;;5064828;28;19919;-42
2021/08/05 04:50:30;;;;;;;;;;;25.70;95.40;;;;;;5063949;28;19911;-41
2021/08/05 04:52:57;;;;;;;;;;;25.60;95.40;;;;;;5064571;28;19955;-43
2021/08/05 04:55:24;;;;;;;;;;;25.70;95.40;;;;;;5064292;28;19905;-41
2021/08/05 04:57:51;;;;;;;;;;;25.60;95.40;;;;;;5064507;28;19916;-42
2021/08/05 05:00:31;;;;;;;;;;;25.60;95.40;;;;;;5064208;28;19905;-50
2021/08/05 05:02:57;;;;;;;;;;;25.60;95.40;;;;;;5064783;28;19913;-41
2021/08/05 05:05:24;;;;;;;;;;;25.60;95.50;;;;;;5063785;28;19905;-44
2021/08/05 05:07:50;;;;;;;;;;;25.60;95.50;;;;;;5063962;28;19920;-42
2021/08/05 05:10:18;;;;;;;;;;;25.60;95.60;;;;;;5062942;28;20133;-41
2021/08/05 05:12:44;;;;;;;;;;;25.60;95.70;;;;;;5063136;28;19943;-47
2021/08/05 05:15:11;;;;;;;;;;;25.60;95.60;;;;;;5062962;28;20253;-42
2021/08/05 05:17:38;;;;;;;;;;;25.60;95.60;;;;;;5064347;28;19917;-42
2021/08/05 05:20:05;;;;;;;;;;;25.60;95.60;;;;;;5063611;28;19905;-40
2021/08/05 05:22:31;;;;;;;;;;;25.60;95.60;;;;;;5064352;28;19921;-46
2021/08/05 05:24:58;;;;;;;;;;;25.60;95.70;;;;;;5063973;28;19905;-43
2021/08/05 05:27:25;;;;;;;;;;;25.50;95.60;;;;;;5064271;28;19984;-44
2021/08/05 05:29:51;;;;;;;;;;;25.50;95.70;;;;;;5063766;28;19974;-41
2021/08/05 05:32:17;;;;;;;;;;;25.50;95.80;;;;;;5064231;28;20196;-43
2021/08/05 05:34:44;;;;;;;;;;;25.50;95.70;;;;;;5062335;28;20100;-41
2021/08/05 05:37:10;;;;;;;;;;;25.50;95.80;;;;;;5063385;28;20153;-45
2021/08/05 05:39:36;;;;;;;;;;;25.60;95.70;;;;;;5063821;28;19927;-48
2021/08/05 05:42:02;;;;;;;;;;;25.50;95.70;;;;;;5062721;28;19992;-48
2021/08/05 05:44:28;;;;;;;;;;;25.50;95.80;;;;;;5066688;28;19905;-50
2021/08/05 05:46:54;;;;;;;;;;;25.50;95.70;;;;;;5067768;28;19983;-43
2021/08/05 05:49:21;;;;;;;;;;;25.50;95.80;;;;;;5067547;28;19905;-42
2021/08/05 05:51:47;;;;;;;;;;;25.50;95.80;;;;;;5067565;28;19955;-51
2021/08/05 05:54:13;;;;;;;;;;;25.50;95.80;;;;;;5067450;28;19905;-47
2021/08/05 05:56:39;;;;;;;;;;;25.50;95.80;;;;;;5067542;28;19923;-46
2021/08/05 05:59:05;;;;;;;;;;;25.50;95.90;;;;;;5067132;28;20164;-42
2021/08/05 06:01:31;;;;;;;;;;;25.50;95.80;;;;;;5067859;28;19920;-47
2021/08/05 06:03:58;;;;;;;;;;;25.50;95.80;;;;;;5067715;28;19905;-49
2021/08/05 06:06:24;;;;;;;;;;;25.50;95.90;;;;;;5067778;28;19942;-42
2021/08/05 06:08:51;;;;;;;;;;;25.60;95.90;;;;;;5067605;28;19925;-44
2021/08/05 06:11:17;;;;;;;;;;;25.60;95.90;;;;;;5067865;28;20039;-43
2021/08/05 06:13:43;;;;;;;;;;;25.60;96.10;;;;;;5067537;28;19905;-50
2021/08/05 06:16:09;;;;;;;;;;;25.60;96.00;;;;;;5067423;28;19924;-46
2021/08/05 06:18:36;;;;;;;;;;;25.60;96.00;;;;;;5067432;28;19936;-45
2021/08/05 06:21:02;;;;;;;;;;;25.60;95.90;;;;;;5067500;28;19917;-52
2021/08/05 06:23:30;;;;;;;;;;;25.50;95.90;;;;;;5067235;28;20149;-42
2021/08/05 06:25:56;;;;;;;;;;;25.50;95.90;;;;;;5067360;28;19913;-42
2021/08/05 06:28:22;;;;;;;;;;;25.50;95.90;;;;;;5067324;28;19979;-44
2021/08/05 06:30:48;;;;;;;;;;;25.50;95.90;;;;;;5067155;28;20100;-55
2021/08/05 06:33:15;;;;;;;;;;;25.50;95.90;;;;;;5067307;28;20184;-42
2021/08/05 06:35:41;;;;;;;;;;;25.50;96.00;;;;;;5067204;28;19912;-48
2021/08/05 06:38:07;;;;;;;;;;;25.50;96.00;;;;;;5066942;28;19909;-52
2021/08/05 06:40:33;;;;;;;;;;;25.50;96.00;;;;;;5067201;28;19928;-47
2021/08/05 06:42:59;;;;;;;;;;;25.50;96.00;;;;;;5066934;28;19912;-41
2021/08/05 06:45:25;;;;;;;;;;;25.50;96.00;;;;;;5066935;28;19972;-57
2021/08/05 06:47:52;;;;;;;;;;;25.50;96.10;;;;;;5067429;28;19909;-45
2021/08/05 06:50:19;;;;;;;;;;;25.50;96.10;;;;;;5067022;28;19955;-45
2021/08/05 06:52:47;;;;;;;;;;;25.50;96.10;;;;;;5067146;28;19909;-48
2021/08/05 06:55:13;;;;;;;;;;;25.50;96.00;;;;;;5066666;28;19915;-46
2021/08/05 06:57:39;;;;;;;;;;;25.50;96.10;;;;;;5067111;28;20141;-44
2021/08/05 07:00:06;;;;;;;;;;;25.50;96.10;;;;;;5066715;28;19944;-45
2021/08/05 07:02:32;;;;;;;;;;;25.50;96.10;;;;;;5067123;28;19947;-45
2021/08/05 07:05:02;;;;;;;;;;;25.50;96.10;;;;;;5066561;28;19909;-45
2021/08/05 07:07:29;;;;;;;;;;;25.50;96.10;;;;;;5066439;28;19916;-51
2021/08/05 07:09:59;;;;;;;;;;;25.50;96.20;;;;;;5066465;28;19932;-45
2021/08/05 07:12:25;;;;;;;;;;;25.50;96.20;;;;;;5066841;28;19909;-46
2021/08/05 07:14:51;;;;;;;;;;;25.50;96.20;;;;;;5066129;28;19995;-51
2021/08/05 07:17:18;;;;;;;;;;;25.50;96.20;;;;;;5066641;28;19915;-46
2021/08/05 07:19:44;;;;;;;;;;;25.50;96.20;;;;;;5066254;28;20105;-49
2021/08/05 07:22:10;;;;;;;;;;;25.50;96.20;;;;;;5066060;28;19905;-42
2021/08/05 07:24:37;;;;;;;;;;;25.50;96.20;;;;;;5066324;28;19921;-47
2021/08/05 07:27:03;;;;;;;;;;;25.50;96.30;;;;;;5066624;28;19905;-41
2021/08/05 07:29:30;;;;;;;;;;;25.50;96.30;;;;;;5066162;28;20193;-43
2021/08/05 07:31:56;;;;;;;;;;;25.50;96.30;;;;;;5066156;28;19905;-43
2021/08/05 07:34:23;;;;;;;;;;;25.50;96.30;;;;;;5066107;28;20201;-46
2021/08/05 07:36:49;;;;;;;;;;;25.50;96.30;;;;;;5066099;28;19983;-42
2021/08/05 07:39:15;;;;;;;;;;;25.50;96.30;;;;;;5065750;28;19944;-52
2021/08/05 07:41:41;;;;;;;;;;;25.50;96.30;;;;;;5066048;28;19927;-43
2021/08/05 07:44:08;;;;;;;;;;;25.50;96.20;;;;;;5065866;28;20016;-42
2021/08/05 07:46:34;;;;;;;;;;;25.50;96.30;;;;;;5066013;28;19940;-45
2021/08/05 07:49:00;;;;;;;;;;;25.50;96.20;;;;;;5065769;28;20101;-47
2021/08/05 07:51:27;;;;;;;;;;;25.50;96.20;;;;;;5065956;28;19905;-47
2021/08/05 07:53:53;;;;;;;;;;;25.50;96.20;;;;;;5065556;28;19913;-46
2021/08/05 07:56:21;;;;;;;;;;;25.50;96.20;;;;;;5065660;28;19908;-44
2021/08/05 07:58:50;;;;;;;;;;;25.50;96.30;;;;;;5065724;28;19913;-43
2021/08/05 08:01:17;;;;;;;;;;;25.50;96.30;;;;;;5065472;28;19905;-45
2021/08/05 08:03:43;;;;;;;;;;;25.50;96.30;;;;;;5065405;28;19912;-42
2021/08/05 08:06:09;;;;;;;;;;;25.50;96.30;;;;;;5065091;28;19905;-42
2021/08/05 08:08:35;;;;;;;;;;;25.50;96.30;;;;;;5065209;28;20212;-42
2021/08/05 08:11:01;;;;;;;;;;;25.50;96.30;;;;;;5065288;28;19944;-48
2021/08/05 08:13:28;;;;;;;;;;;25.50;96.20;;;;;;5065421;28;19915;-43
2021/08/05 08:15:54;;;;;;;;;;;25.50;96.20;;;;;;5065063;28;19909;-42
2021/08/05 08:18:21;;;;;;;;;;;25.50;96.20;;;;;;5065353;28;20239;-46
2021/08/05 08:20:47;;;;;;;;;;;25.40;96.20;;;;;;5065191;28;19905;-47
2021/08/05 08:23:13;;;;;;;;;;;25.50;96.20;;;;;;5065213;28;19983;-42
2021/08/05 08:25:39;;;;;;;;;;;25.40;96.10;;;;;;5064975;28;19905;-49
2021/08/05 08:28:07;;;;;;;;;;;25.50;96.10;;;;;;5065098;28;19909;-46
2021/08/05 08:30:34;;;;;;;;;;;25.50;96.20;;;;;;5065118;28;20113;-44
2021/08/05 08:33:00;;;;;;;;;;;25.40;96.10;;;;;;5064920;28;19917;-44
2021/08/05 08:35:26;;;;;;;;;;;25.40;96.20;;;;;;5065073;28;19905;-46
2021/08/05 08:37:52;;;;;;;;;;;25.40;96.20;;;;;;5065420;28;20220;-44
2021/08/05 08:40:18;;;;;;;;;;;25.40;96.10;;;;;;5064829;28;20198;-45
2021/08/05 08:42:45;;;;;;;;;;;25.40;96.20;;;;;;5065294;28;19909;-53
2021/08/05 08:45:12;;;;;;;;;;;25.40;96.30;;;;;;5064836;28;20100;-45
2021/08/05 08:47:40;;;;;;;;;;;25.40;96.30;;;;;;5065136;28;19951;-44
2021/08/05 08:50:06;;;;;;;;;;;25.40;96.30;;;;;;5065030;28;19944;-45
2021/08/05 08:52:34;;;;;;;;;;;25.30;96.30;;;;;;5065200;28;19908;-46
2021/08/05 08:55:01;;;;;;;;;;;25.40;96.30;;;;;;5064605;28;19976;-44
2021/08/05 08:57:31;;;;;;;;;;;25.30;96.30;;;;;;5065099;28;19951;-42
2021/08/05 08:59:58;;;;;;;;;;;25.30;96.30;;;;;;5064631;28;19913;-45
2021/08/05 09:02:25;;;;;;;;;;;25.30;96.30;;;;;;5064888;28;19912;-44
2021/08/05 09:04:52;;;;;;;;;;;25.40;96.30;;;;;;5064772;28;20198;-46
2021/08/05 09:07:18;;;;;;;;;;;25.30;96.20;;;;;;5064408;28;19970;-44
2021/08/05 09:09:44;;;;;;;;;;;25.30;96.20;;;;;;5064507;28;19909;-44
2021/08/05 09:12:15;;;;;;;;;;;25.30;96.30;;;;;;5064859;28;20177;-45
2021/08/05 09:14:42;;;;;;;;;;;25.30;96.30;;;;;;5064426;28;19908;-42
2021/08/05 09:17:22;;;;;;;;;;;25.30;96.30;;;;;;5064693;28;20207;-47
2021/08/05 09:19:51;;;;;;;;;;;25.30;96.40;;;;;;5068220;28;20117;-46
2021/08/05 09:22:35;;;;;;;;;;;25.30;96.40;;;;;;5067349;28;19913;-50
2021/08/05 09:25:20;;;;;;;;;;;25.30;96.40;;;;;;5068454;28;19909;-43
2021/08/05 09:27:46;;;;;;;;;;;25.30;96.40;;;;;;5068856;28;19917;-42
2021/08/05 09:30:26;;;;;;;;;;;25.30;96.40;;;;;;5068324;28;19916;-47
2021/08/05 09:32:52;;;;;;;;;;;25.30;96.40;;;;;;5068680;28;19908;-45
2021/08/05 09:35:18;;;;;;;;;;;25.30;96.40;;;;;;5068216;28;19909;-45
2021/08/05 09:37:44;;;;;;;;;;;25.30;96.40;;;;;;5068667;28;19913;-43
2021/08/05 09:40:12;;;;;;;;;;;25.30;96.40;;;;;;5068076;28;19909;-51
2021/08/05 09:42:38;;;;;;;;;;;25.30;96.40;;;;;;5068523;28;19915;-49
2021/08/05 09:45:07;;;;;;;;;;;25.30;96.40;;;;;;5068196;28;19916;-46
2021/08/05 09:47:42;;;;;;;;;;;25.30;96.40;;;;;;5068236;28;19931;-46
2021/08/05 09:50:09;;;;;;;;;;;25.30;96.40;;;;;;5067970;28;19909;-47
2021/08/05 09:52:35;;;;;;;;;;;25.30;96.40;;;;;;5067780;28;19971;-48
2021/08/05 09:55:05;;;;;;;;;;;25.30;96.40;;;;;;5067875;28;20247;-50
2021/08/05 09:57:32;;;;;;;;;;;25.30;96.40;;;;;;5068063;28;19920;-53
2021/08/05 09:59:59;;;;;;;;;;;25.30;96.40;;;;;;5067769;28;19909;-44
2021/08/05 10:02:26;;;;;;;;;;;25.30;96.40;;;;;;5067875;28;19909;-50
2021/08/05 10:04:53;;;;;;;;;;;25.30;96.40;;;;;;5067615;28;20220;-41
2021/08/05 10:07:19;;;;;;;;;;;25.20;96.30;;;;;;5067611;28;19995;-45
2021/08/05 10:09:46;;;;;;;;;;;25.30;96.40;;;;;;5067511;28;19909;-44
2021/08/05 10:12:13;;;;;;;;;;;25.20;96.30;;;;;;5067351;28;19959;-45
2021/08/05 10:14:40;;;;;;;;;;;25.20;96.30;;;;;;5067392;28;19916;-42
2021/08/05 10:17:06;;;;;;;;;;;25.20;96.30;;;;;;5067605;28;19954;-46
2021/08/05 10:19:39;;;;;;;;;;;25.30;96.40;;;;;;5067323;28;19947;-42
2021/08/05 10:22:06;;;;;;;;;;;25.20;96.40;;;;;;5067627;28;19950;-45
2021/08/05 10:24:37;;;;;;;;;;;25.20;96.40;;;;;;5067212;28;20136;-43
2021/08/05 10:27:05;;;;;;;;;;;25.20;96.40;;;;;;5067700;28;19908;-43
2021/08/05 10:29:31;;;;;;;;;;;25.20;96.40;;;;;;5066740;28;19936;-42
2021/08/05 10:31:58;;;;;;;;;;;25.20;96.40;;;;;;5067358;28;19917;-44
2021/08/05 10:34:24;;;;;;;;;;;25.20;96.50;;;;;;5067152;28;19976;-44
2021/08/05 10:36:51;;;;;;;;;;;25.20;96.50;;;;;;5067298;28;20074;-44
2021/08/05 10:39:18;;;;;;;;;;;25.20;96.50;;;;;;5067214;28;19951;-47
2021/08/05 10:41:44;;;;;;;;;;;25.20;96.50;;;;;;5067301;28;19915;-48
2021/08/05 10:44:10;;;;;;;;;;;25.20;96.50;;;;;;5066891;28;19944;-46
2021/08/05 10:46:37;;;;;;;;;;;25.20;96.50;;;;;;5066836;28;19916;-45
2021/08/05 10:49:03;;;;;;;;;;;25.20;96.50;;;;;;5066821;28;19916;-43
2021/08/05 10:51:36;;;;;;;;;;;25.20;96.50;;;;;;5066850;28;19908;-50
2021/08/05 10:54:03;;;;;;;;;;;25.20;96.50;;;;;;5066901;28;19909;-46
2021/08/05 10:56:30;;;;;;;;;;;25.20;96.50;;;;;;5066677;28;19917;-42
2021/08/05 10:59:11;;;;;;;;;;;25.20;96.50;;;;;;5066330;28;19916;-42
2021/08/05 11:01:56;;;;;;;;;;;25.20;96.50;;;;;;5066676;28;19917;-46
2021/08/05 11:04:40;;;;;;;;;;;25.10;96.50;;;;;;5066342;28;19909;-46
2021/08/05 11:07:22;;;;;;;;;;;25.10;96.50;;;;;;5066439;28;19924;-44
2021/08/05 11:09:48;;;;;;;;;;;25.10;96.80;;;;;;5066009;28;19919;-42
2021/08/05 11:12:48;;;;;;;;;;;25.20;96.60;;;;;;5066509;28;19909;-42
2021/08/05 11:15:25;;;;;;;;;;;25.20;96.60;;;;;;5022573;28;19976;-48
2021/08/05 11:18:09;;;;;;;;;;;25.20;96.60;;;;;;5066003;28;19912;-45
2021/08/05 11:20:36;;;;;;;;;;;25.20;96.60;;;;;;5065454;28;19979;-44
2021/08/05 11:23:04;;;;;;;;;;;25.10;96.60;;;;;;5065558;28;19909;-48
2021/08/05 11:25:48;;;;;;;;;;;25.20;96.80;;;;;;5065268;28;19905;-45
2021/08/05 11:28:21;;;;;;;;;;;25.20;96.80;;;;;;5065310;28;19951;-47
2021/08/05 11:30:51;;;;;;;;;;;25.20;96.80;;;;;;5065201;28;19912;-45
2021/08/05 11:33:36;;;;;;;;;;;25.20;96.80;;;;;;5065381;28;19932;-49
2021/08/05 11:36:22;;;;;;;;;;;25.20;96.80;;;;;;5065172;28;19913;-43
2021/08/05 11:39:03;;;;;;;;;;;25.10;96.80;;;;;;5065121;28;19904;-45
2021/08/05 11:41:45;;;;;;;;;;;25.10;96.70;;;;;;5064667;28;20153;-45
2021/08/05 11:44:18;;;;;;;;;;;25.10;96.70;;;;;;5065074;28;19927;-47
2021/08/05 11:46:48;;;;;;;;;;;25.10;96.70;;;;;;5065421;28;19921;-45
2021/08/05 11:49:32;;;;;;;;;;;25.10;96.80;;;;;;5065119;28;19905;-44
2021/08/05 11:51:58;;;;;;;;;;;25.20;96.80;;;;;;5065685;28;19913;-48
2021/08/05 11:54:25;;;;;;;;;;;25.20;96.90;;;;;;5065235;28;20105;-44
2021/08/05 11:57:20;;;;;;;;;;;25.10;96.90;;;;;;5065142;28;20100;-42
2021/08/05 11:59:49;;;;;;;;;;;25.20;96.90;;;;;;5062684;28;19967;-42
2021/08/05 12:02:17;;;;;;;;;;;25.20;96.90;;;;;;5065312;28;20066;-42
2021/08/05 12:04:43;;;;;;;;;;;25.20;96.90;;;;;;5065034;28;19937;-50
2021/08/05 12:07:26;;;;;;;;;;;25.20;97.00;;;;;;5065035;28;19959;-43
2021/08/05 12:10:00;;;;;;;;;;;25.20;96.90;;;;;;5064934;28;19952;-45
2021/08/05 12:12:27;;;;;;;;;;;25.20;97.00;;;;;;5065306;28;19920;-43
2021/08/05 12:14:58;;;;;;;;;;;25.20;97.00;;;;;;5064811;28;19905;-45
2021/08/05 12:17:41;;;;;;;;;;;25.20;97.00;;;;;;5065189;28;19923;-46
2021/08/05 12:20:13;;;;;;;;;;;25.20;97.00;;;;;;5063472;28;20196;-43
2021/08/05 12:22:43;;;;;;;;;;;25.20;96.90;;;;;;5064559;28;19913;-45
2021/08/05 12:25:25;;;;;;;;;;;25.20;97.00;;;;;;5064562;28;20136;-44
2021/08/05 12:28:07;;;;;;;;;;;25.20;97.00;;;;;;5064969;28;19919;-44
2021/08/05 12:30:38;;;;;;;;;;;25.20;97.10;;;;;;5064529;28;19909;-43
2021/08/05 12:33:07;;;;;;;;;;;25.20;97.10;;;;;;5064453;28;20108;-40
2021/08/05 12:35:33;;;;;;;;;;;25.20;97.10;;;;;;5063220;28;19905;-44
2021/08/05 12:38:04;;;;;;;;;;;25.20;97.10;;;;;;5063279;28;19909;-43
2021/08/05 12:40:31;;;;;;;;;;;25.20;97.00;;;;;;5064806;28;19947;-51
2021/08/05 12:42:57;;;;;;;;;;;25.20;97.00;;;;;;5063482;28;20192;-49
2021/08/05 12:45:25;;;;;;;;;;;25.20;97.00;;;;;;5062971;28;19939;-48
2021/08/05 12:47:51;;;;;;;;;;;25.20;97.00;;;;;;5064791;28;20105;-47
2021/08/05 12:50:17;;;;;;;;;;;25.30;97.00;;;;;;5064431;28;20209;-47
2021/08/05 12:52:44;;;;;;;;;;;25.20;96.90;;;;;;5064302;28;19920;-48
2021/08/05 12:55:10;;;;;;;;;;;25.30;96.90;;;;;;5064338;28;19912;-44
2021/08/05 12:57:38;;;;;;;;;;;25.30;97.10;;;;;;5064403;28;19916;-45
2021/08/05 13:00:23;;;;;;;;;;;25.30;97.00;;;;;;5063895;28;19916;-43
2021/08/05 13:02:59;;;;;;;;;;;25.30;97.00;;;;;;5064587;28;19909;-49
2021/08/05 13:05:26;;;;;;;;;;;25.30;97.10;;;;;;5063869;28;19909;-52
2021/08/05 13:07:52;;;;;;;;;;;25.30;97.00;;;;;;5063722;28;20263;-47
2021/08/05 13:10:28;;;;;;;;;;;25.30;97.00;;;;;;5063947;28;19976;-42
2021/08/05 13:12:55;;;;;;;;;;;25.30;97.10;;;;;;5063767;28;20228;-47
2021/08/05 13:15:34;;;;;;;;;;;25.30;97.10;;;;;;5063998;28;19908;-47
2021/08/05 13:18:01;;;;;;;;;;;25.30;97.10;;;;;;5063172;28;19996;-46
2021/08/05 13:20:29;;;;;;;;;;;25.30;97.10;;;;;;5063877;28;19969;-44
2021/08/05 13:22:57;;;;;;;;;;;25.30;97.00;;;;;;5064344;28;19932;-49
2021/08/05 13:25:25;;;;;;;;;;;25.30;97.10;;;;;;5063817;28;19916;-42
2021/08/05 13:28:08;;;;;;;;;;;25.30;97.00;;;;;;5064313;28;19908;-47
2021/08/05 13:30:34;;;;;;;;;;;25.30;97.10;;;;;;5063200;28;19947;-41
2021/08/05 13:33:01;;;;;;;;;;;25.30;97.00;;;;;;5063874;28;20251;-40
2021/08/05 13:35:27;;;;;;;;;;;25.30;97.10;;;;;;5063722;28;19937;-40
2021/08/05 13:37:57;;;;;;;;;;;25.30;97.20;;;;;;5064091;28;20074;-42
2021/08/05 13:40:24;;;;;;;;;;;25.30;97.10;;;;;;5064016;28;19967;-42
2021/08/05 13:42:50;;;;;;;;;;;25.30;97.10;;;;;;5064504;28;19909;-46
2021/08/05 13:45:17;;;;;;;;;;;25.30;97.20;;;;;;5062458;28;20216;-43
2021/08/05 13:47:43;;;;;;;;;;;25.30;96.90;;;;;;5064296;28;19916;-41
2021/08/05 13:50:12;;;;;;;;;;;25.30;97.00;;;;;;5063873;28;19916;-40
2021/08/05 13:52:38;;;;;;;;;;;25.30;96.80;;;;;;5063627;28;20027;-44
2021/08/05 13:55:05;;;;;;;;;;;25.30;97.00;;;;;;5063593;28;19913;-42
2021/08/05 13:57:31;;;;;;;;;;;25.30;97.00;;;;;;5063933;28;19996;-49
2021/08/05 13:59:57;;;;;;;;;;;25.30;97.10;;;;;;5063355;28;19909;-48
2021/08/05 14:02:23;;;;;;;;;;;25.30;97.00;;;;;;5062473;28;19908;-41
2021/08/05 14:04:49;;;;;;;;;;;25.30;97.00;;;;;;5065559;28;19909;-40
2021/08/05 14:07:15;;;;;;;;;;;25.30;97.10;;;;;;5067174;28;19921;-45
2021/08/05 14:09:41;;;;;;;;;;;25.40;97.20;;;;;;5067008;28;19971;-41
2021/08/05 14:12:08;;;;;;;;;;;25.40;97.30;;;;;;5067009;28;20189;-42
2021/08/05 14:14:35;;;;;;;;;;;25.40;97.10;;;;;;5067034;28;19909;-45
2021/08/05 14:17:01;;;;;;;;;;;25.40;97.00;;;;;;5067153;28;20105;-44
2021/08/05 14:19:27;;;;;;;;;;;25.40;97.00;;;;;;5066950;28;20014;-46
2021/08/05 14:21:53;;;;;;;;;;;25.40;97.10;;;;;;5067310;28;19917;-41
2021/08/05 14:24:20;;;;;;;;;;;25.40;97.00;;;;;;5066757;28;19905;-46
2021/08/05 14:26:47;;;;;;;;;;;25.40;97.20;;;;;;5067214;28;19935;-47
2021/08/05 14:29:14;;;;;;;;;;;25.50;97.20;;;;;;5066013;28;20097;-44
2021/08/05 14:31:40;;;;;;;;;;;25.40;97.10;;;;;;5066752;28;19920;-47
2021/08/05 14:34:06;;;;;;;;;;;25.50;96.90;;;;;;5067047;28;19905;-51